Time;durP1;ratioP1;P1;durP2;ratioP2;P2;SDS_P1;SDS_P2;PMS_P1;PMS_P2;Temp;Humidity;BMP_temperature;BMP_pressure;BME280_temperature;BME280_humidity;BME280_pressure;Samples;Min_cycle;Max_cycle;Signal;HPM_P1;HPM_P2
2022/01/16 00:00:37;;;;;;;;;;;;;;;20.25;39.27;102189.84;4975977;28;20302;-90
2022/01/16 00:05:46;;;;;;;;;;;;;;;20.26;39.34;102210.72;4978759;28;19933;-90
2022/01/16 00:08:12;;;;;;;;;;;;;;;20.26;39.43;102213.47;5007631;28;19922;-92
2022/01/16 00:10:37;;;;;;;;;;;;;;;20.25;39.53;102203.56;4983850;28;20366;-92
2022/01/16 00:13:02;;;;;;;;;;;;;;;20.24;39.29;102199.19;4975263;28;20061;-92
2022/01/16 00:15:28;;;;;;;;;;;;;;;20.23;39.37;102208.50;4971695;28;19926;-92
2022/01/16 00:20:18;;;;;;;;;;;;;;;20.22;39.49;102209.59;4991065;28;20021;-91
2022/01/16 00:22:45;;;;;;;;;;;;;;;20.21;39.40;102194.25;4983721;28;19953;-90
2022/01/16 00:25:11;;;;;;;;;;;;;;;20.21;39.42;102196.16;5006189;28;19922;-91
2022/01/16 00:27:36;;;;;;;;;;;;;;;20.21;39.13;102190.66;4975445;28;20355;-90
2022/01/16 00:30:01;;;;;;;;;;;;;;;20.20;39.32;102172.56;4989485;28;19929;-91
2022/01/16 00:32:27;;;;;;;;;;;;;;;20.19;39.37;102188.22;4982267;28;19949;-89
2022/01/16 00:34:52;;;;;;;;;;;;;;;20.19;39.08;102187.41;4989493;28;19938;-90
2022/01/16 00:37:17;;;;;;;;;;;;;;;20.17;39.41;102215.09;4961697;28;19969;-90
2022/01/16 00:39:42;;;;;;;;;;;;;;;20.17;39.35;102195.06;4974337;28;19929;-86
2022/01/16 00:42:07;;;;;;;;;;;;;;;20.16;39.26;102193.41;4974597;28;19926;-92
2022/01/16 00:44:33;;;;;;;;;;;;;;;20.16;39.35;102187.91;4985711;28;19957;-92
2022/01/16 00:46:58;;;;;;;;;;;;;;;20.15;39.09;102186.28;4969079;28;20494;-91
2022/01/16 00:49:23;;;;;;;;;;;;;;;20.14;39.13;102176.41;4974253;28;19933;-91
2022/01/16 00:51:48;;;;;;;;;;;;;;;20.13;38.97;102181.06;4967108;28;19926;-93
2022/01/16 00:54:14;;;;;;;;;;;;;;;20.13;39.01;102196.69;5000011;28;19969;-92
2022/01/16 00:56:39;;;;;;;;;;;;;;;20.12;38.98;102175.84;4975478;28;20374;-93
2022/01/16 00:59:04;;;;;;;;;;;;;;;20.10;39.18;102144.03;4975148;28;19922;-89
2022/01/16 01:01:29;;;;;;;;;;;;;;;20.11;39.01;102150.34;4988794;28;20033;-92
2022/01/16 01:03:57;;;;;;;;;;;;;;;20.10;39.08;102145.94;4989257;28;19922;-93
2022/01/16 01:06:23;;;;;;;;;;;;;;;20.08;38.96;102159.94;4989946;28;19922;-92
2022/01/16 01:08:48;;;;;;;;;;;;;;;20.09;38.86;102147.06;4985830;28;19932;-90
2022/01/16 01:11:16;;;;;;;;;;;;;;;20.07;39.00;102173.94;4973391;28;20378;-91
2022/01/16 01:16:28;;;;;;;;;;;;;;;20.05;39.00;102174.19;4974661;28;20013;-92
2022/01/16 01:18:53;;;;;;;;;;;;;;;20.05;39.07;102170.63;4984029;28;19973;-92
2022/01/16 01:21:36;;;;;;;;;;;;;;;20.04;38.96;102169.00;4974064;28;19930;-92
2022/01/16 01:24:01;;;;;;;;;;;;;;;20.02;38.89;102152.78;4972547;28;19926;-90
2022/01/16 01:26:34;;;;;;;;;;;;;;;20.03;38.81;102159.09;4990504;28;19929;-93
2022/01/16 01:29:00;;;;;;;;;;;;;;;20.03;38.81;102170.06;4969976;28;19927;-92
2022/01/16 01:31:26;;;;;;;;;;;;;;;20.02;38.76;102171.19;4991661;28;19922;-92
2022/01/16 01:33:51;;;;;;;;;;;;;;;20.01;38.70;102170.34;4972874;28;19922;-91
2022/01/16 01:36:16;;;;;;;;;;;;;;;20.00;38.64;102138.53;4975125;28;19922;-93
2022/01/16 01:38:42;;;;;;;;;;;;;;;19.99;38.75;102109.47;4965694;28;19926;-91
2022/01/16 01:41:07;;;;;;;;;;;;;;;19.99;38.90;102089.44;4974486;28;19932;-90
2022/01/16 01:51:27;;;;;;;;;;;;;;;19.95;38.67;102118.50;4956086;29;20017;-93
2022/01/16 01:53:55;;;;;;;;;;;;;;;19.95;38.72;102143.19;4999673;28;19957;-90
2022/01/16 01:56:22;;;;;;;;;;;;;;;19.94;38.68;102147.03;4957198;28;19922;-93
2022/01/16 01:58:48;;;;;;;;;;;;;;;19.93;38.61;102170.06;4972672;28;19929;-92
2022/01/16 02:01:14;;;;;;;;;;;;;;;19.92;38.42;102171.16;4974355;28;20367;-91
2022/01/16 02:03:42;;;;;;;;;;;;;;;19.91;38.88;102173.09;4974441;28;19948;-91
2022/01/16 02:06:15;;;;;;;;;;;;;;;19.89;38.70;102176.09;4973578;28;19926;-92
2022/01/16 02:08:45;;;;;;;;;;;;;;;19.91;38.52;102196.91;4959842;28;19922;-93
2022/01/16 02:11:14;;;;;;;;;;;;;;;19.88;38.71;102179.94;4978585;28;20036;-92
2022/01/16 02:13:51;;;;;;;;;;;;;;;19.87;38.53;102181.00;4990920;28;19922;-93
2022/01/16 02:35:06;;;;;;;;;;;;;;;19.80;38.72;102188.66;4976682;28;19919;-93
2022/01/16 02:37:31;;;;;;;;;;;;;;;19.80;38.67;102190.59;4976186;28;20069;-92
2022/01/16 02:40:04;;;;;;;;;;;;;;;19.79;38.65;102195.25;4974990;28;20378;-91
2022/01/16 02:42:36;;;;;;;;;;;;;;;19.79;38.56;102183.47;4970740;28;19926;-92
2022/01/16 02:45:03;;;;;;;;;;;;;;;19.78;38.43;102179.06;4977044;28;19933;-92
2022/01/16 02:47:28;;;;;;;;;;;;;;;19.78;38.60;102168.09;4994530;28;20015;-94
2022/01/16 02:49:54;;;;;;;;;;;;;;;19.77;38.50;102156.31;4979758;28;20024;-95
2022/01/16 02:52:20;;;;;;;;;;;;;;;19.77;38.55;102158.22;4975649;28;20036;-94
2022/01/16 02:54:47;;;;;;;;;;;;;;;19.75;38.49;102155.75;4997597;28;19922;-92
2022/01/16 02:57:13;;;;;;;;;;;;;;;19.75;38.42;102153.00;4979726;28;19991;-93
2022/01/16 02:59:40;;;;;;;;;;;;;;;19.75;38.51;102152.19;4987843;28;19922;-92
2022/01/16 03:02:08;;;;;;;;;;;;;;;19.74;38.52;102145.88;4991587;28;19992;-91
2022/01/16 03:04:33;;;;;;;;;;;;;;;19.73;38.67;102141.50;4976195;28;19973;-92
2022/01/16 03:07:00;;;;;;;;;;;;;;;19.72;38.56;102131.63;4974106;28;19930;-89
2022/01/16 03:09:32;;;;;;;;;;;;;;;19.73;38.39;102132.44;4978576;28;19922;-93
2022/01/16 03:11:57;;;;;;;;;;;;;;;19.71;38.57;102127.25;4980949;28;19926;-89
2022/01/16 03:14:23;;;;;;;;;;;;;;;19.71;38.56;102119.03;4958713;28;20017;-90
2022/01/16 03:16:51;;;;;;;;;;;;;;;19.70;38.50;102117.34;4975478;28;20375;-91
2022/01/16 03:22:04;;;;;;;;;;;;;;;19.69;38.26;102126.69;4975761;28;19929;-91
2022/01/16 03:24:33;;;;;;;;;;;;;;;19.69;38.44;102114.91;4976582;28;19953;-92
2022/01/16 03:27:00;;;;;;;;;;;;;;;19.69;38.46;102112.16;4975831;28;19977;-93
2022/01/16 03:29:27;;;;;;;;;;;;;;;19.66;38.62;102122.53;4976110;28;19922;-92
2022/01/16 03:31:52;;;;;;;;;;;;;;;19.66;38.46;102117.06;4976937;28;19926;-92
2022/01/16 03:34:18;;;;;;;;;;;;;;;19.67;38.33;102117.91;4980650;28;19922;-90
2022/01/16 03:36:43;;;;;;;;;;;;;;;19.65;38.34;102114.56;4985298;28;20009;-91
2022/01/16 03:39:08;;;;;;;;;;;;;;;19.65;38.69;102109.09;4964015;28;20371;-93
2022/01/16 03:41:34;;;;;;;;;;;;;;;19.64;38.40;102107.44;4976618;28;19933;-93
2022/01/16 03:44:02;;;;;;;;;;;;;;;19.63;38.35;102111.28;4989823;28;19933;-86
2022/01/16 03:46:34;;;;;;;;;;;;;;;19.62;38.49;102099.50;4981058;28;19930;-93
2022/01/16 03:49:00;;;;;;;;;;;;;;;19.61;38.36;102103.34;4974730;28;19977;-93
2022/01/16 03:51:25;;;;;;;;;;;;;;;19.61;38.48;102105.25;4960634;28;19930;-92
2022/01/16 03:53:50;;;;;;;;;;;;;;;19.61;38.36;102110.75;4974559;28;19981;-93
2022/01/16 03:56:15;;;;;;;;;;;;;;;19.59;38.30;102113.75;4974870;28;19926;-94
2022/01/16 03:58:41;;;;;;;;;;;;;;;19.59;38.36;102108.25;4992112;28;19929;-93
2022/01/16 04:01:06;;;;;;;;;;;;;;;19.59;38.26;102110.19;4982962;28;19930;-93
2022/01/16 04:03:31;;;;;;;;;;;;;;;19.58;38.57;102112.09;4990396;28;20322;-88
2022/01/16 04:05:56;;;;;;;;;;;;;;;19.58;38.48;102108.50;4975121;28;19926;-93
2022/01/16 04:08:22;;;;;;;;;;;;;;;19.56;38.49;102108.00;4990044;28;20148;-93
2022/01/16 04:10:47;;;;;;;;;;;;;;;19.55;38.46;102112.63;4990508;28;19922;-91
2022/01/16 04:13:12;;;;;;;;;;;;;;;19.55;38.38;102107.13;5007164;28;19929;-93
2022/01/16 04:15:38;;;;;;;;;;;;;;;19.54;38.43;102105.50;4973383;28;19949;-92
2022/01/16 04:18:05;;;;;;;;;;;;;;;19.54;38.57;102108.25;4971913;28;19926;-87
2022/01/16 04:20:32;;;;;;;;;;;;;;;19.54;38.33;102101.94;4975687;28;19918;-93
2022/01/16 04:22:57;;;;;;;;;;;;;;;19.53;38.38;102108.50;4962162;28;20330;-92
2022/01/16 04:25:22;;;;;;;;;;;;;;;19.51;38.52;102105.22;4975015;28;20028;-92
2022/01/16 04:27:48;;;;;;;;;;;;;;;19.51;38.43;102107.97;4988194;28;20012;-93
2022/01/16 04:30:13;;;;;;;;;;;;;;;19.50;38.48;102109.03;4973846;28;19922;-92
2022/01/16 04:32:39;;;;;;;;;;;;;;;19.49;38.40;102100.00;4981874;28;19933;-92
2022/01/16 04:35:05;;;;;;;;;;;;;;;19.48;38.54;102098.38;4979155;28;20164;-92
2022/01/16 04:37:30;;;;;;;;;;;;;;;19.48;38.33;102105.75;4975859;28;20037;-90
2022/01/16 04:40:00;;;;;;;;;;;;;;;19.47;38.45;102102.19;4973391;28;21599;-92
2022/01/16 04:45:10;;;;;;;;;;;;;;;19.45;38.26;102097.00;4975673;28;20417;-93
2022/01/16 04:47:35;;;;;;;;;;;;;;;19.44;38.50;102095.34;4990314;28;19926;-94
2022/01/16 04:50:00;;;;;;;;;;;;;;;19.44;38.40;102086.28;4974224;28;20377;-91
2022/01/16 04:52:25;;;;;;;;;;;;;;;19.42;38.51;102089.28;4973668;28;20386;-92
2022/01/16 04:54:51;;;;;;;;;;;;;;;19.42;38.46;102094.78;5005843;28;19989;-91
2022/01/16 04:57:16;;;;;;;;;;;;;;;19.42;38.46;102093.94;4989855;28;20425;-93
2022/01/16 04:59:42;;;;;;;;;;;;;;;19.41;38.57;102086.84;4984947;28;19922;-92
2022/01/16 05:02:07;;;;;;;;;;;;;;;19.41;38.43;102093.13;4974134;28;19962;-90
2022/01/16 05:04:32;;;;;;;;;;;;;;;19.40;38.41;102098.88;5005463;28;19926;-92
2022/01/16 05:06:57;;;;;;;;;;;;;;;19.39;38.57;102094.50;4989603;28;19930;-93
2022/01/16 05:09:23;;;;;;;;;;;;;;;19.37;38.56;102078.31;4990206;28;19965;-93
2022/01/16 05:11:54;;;;;;;;;;;;;;;19.38;38.36;102079.97;4983312;28;19922;-92
2022/01/16 05:17:03;;;;;;;;;;;;;;;19.37;38.60;102081.06;4982722;28;20053;-93
2022/01/16 05:19:28;;;;;;;;;;;;;;;19.35;38.61;102074.19;4980245;28;19980;-92
2022/01/16 05:21:54;;;;;;;;;;;;;;;19.36;38.41;102084.09;4982324;28;19937;-92
2022/01/16 05:24:19;;;;;;;;;;;;;;;19.35;38.61;102086.00;4963525;28;19970;-91
2022/01/16 05:26:44;;;;;;;;;;;;;;;19.34;38.63;102080.78;4973890;28;19934;-93
2022/01/16 05:29:10;;;;;;;;;;;;;;;19.33;38.42;102079.97;4977592;28;19976;-89
2022/01/16 05:31:35;;;;;;;;;;;;;;;19.33;38.62;102090.94;4989623;28;19969;-93
2022/01/16 05:34:01;;;;;;;;;;;;;;;19.32;38.43;102100.22;4985162;28;19918;-92
2022/01/16 05:36:26;;;;;;;;;;;;;;;19.32;38.61;102094.75;5005680;28;20013;-92
2022/01/16 05:38:53;;;;;;;;;;;;;;;19.31;38.69;102093.09;4972949;28;20013;-89
2022/01/16 05:41:18;;;;;;;;;;;;;;;19.30;38.61;102085.97;4978471;28;19931;-93
2022/01/16 05:43:44;;;;;;;;;;;;;;;19.30;38.61;102102.41;4974603;28;19926;-93
2022/01/16 05:46:10;;;;;;;;;;;;;;;19.30;38.51;102099.66;4974096;28;19918;-90
2022/01/16 05:48:35;;;;;;;;;;;;;;;19.29;38.45;102108.97;4976270;28;19941;-93
2022/01/16 05:51:00;;;;;;;;;;;;;;;19.29;38.39;102110.91;4981384;28;19922;-94
2022/01/16 05:53:25;;;;;;;;;;;;;;;19.28;38.64;102120.19;4983338;28;19945;-90
2022/01/16 05:55:51;;;;;;;;;;;;;;;19.28;38.67;102118.31;4987113;28;20021;-91
2022/01/16 05:58:16;;;;;;;;;;;;;;;19.27;38.63;102113.91;4993866;28;19922;-87
2022/01/16 06:00:44;;;;;;;;;;;;;;;19.27;38.73;102113.09;4972598;28;20399;-93
2022/01/16 06:03:10;;;;;;;;;;;;;;;19.26;38.63;102112.25;4993683;28;19930;-92
2022/01/16 06:05:35;;;;;;;;;;;;;;;19.26;38.58;102106.78;4978579;28;20597;-90
2022/01/16 06:08:06;;;;;;;;;;;;;;;19.24;38.65;102109.78;4977210;28;19918;-91
2022/01/16 06:10:32;;;;;;;;;;;;;;;19.25;38.45;102102.38;4993820;28;19925;-92
2022/01/16 06:12:57;;;;;;;;;;;;;;;19.25;38.66;102099.66;4987900;28;19922;-92
2022/01/16 06:15:22;;;;;;;;;;;;;;;19.23;38.61;102097.19;4993801;28;19925;-92
2022/01/16 06:17:48;;;;;;;;;;;;;;;19.23;38.65;102108.16;4992162;28;19965;-92
2022/01/16 06:20:15;;;;;;;;;;;;;;;19.23;38.57;102101.84;4990983;28;19922;-92
2022/01/16 06:22:40;;;;;;;;;;;;;;;19.22;38.62;102108.41;4976803;28;19918;-91
2022/01/16 06:25:06;;;;;;;;;;;;;;;19.21;38.63;102113.06;4981905;28;19929;-92
2022/01/16 06:27:31;;;;;;;;;;;;;;;19.21;38.69;102113.06;4974833;28;20286;-93
2022/01/16 06:29:56;;;;;;;;;;;;;;;19.21;38.66;102110.31;5009027;28;19922;-90
2022/01/16 06:32:21;;;;;;;;;;;;;;;19.20;38.57;102118.78;5012286;28;20301;-92
2022/01/16 06:34:47;;;;;;;;;;;;;;;19.20;38.82;102121.53;4977398;28;20285;-88
2022/01/16 06:37:12;;;;;;;;;;;;;;;19.20;38.70;102129.75;4990081;28;19977;-91
2022/01/16 06:39:37;;;;;;;;;;;;;;;19.19;38.69;102139.91;4992017;28;19922;-92
2022/01/16 06:42:02;;;;;;;;;;;;;;;19.18;38.58;102138.25;4988721;28;19926;-94
2022/01/16 06:44:28;;;;;;;;;;;;;;;19.18;38.50;102140.19;4976439;28;19922;-95
2022/01/16 06:46:53;;;;;;;;;;;;;;;19.17;38.73;102139.31;4977866;28;19929;-91
2022/01/16 06:49:18;;;;;;;;;;;;;;;19.16;38.39;102132.22;4963765;28;19930;-86
2022/01/16 06:51:43;;;;;;;;;;;;;;;19.16;38.66;102137.69;4971908;28;19981;-95
2022/01/16 06:54:09;;;;;;;;;;;;;;;19.16;38.62;102145.09;5010452;28;19925;-93
2022/01/16 06:56:34;;;;;;;;;;;;;;;19.16;38.46;102153.31;4987890;28;20398;-93
2022/01/16 06:58:59;;;;;;;;;;;;;;;19.15;38.71;102159.88;4984830;28;19926;-94
2022/01/16 07:01:26;;;;;;;;;;;;;;;19.15;38.73;102163.44;4984296;28;19930;-91
2022/01/16 07:03:53;;;;;;;;;;;;;;;19.15;38.77;102162.59;4982995;28;20012;-92
2022/01/16 07:06:19;;;;;;;;;;;;;;;19.14;38.70;102164.53;4958007;28;19922;-93
2022/01/16 07:08:44;;;;;;;;;;;;;;;19.13;38.74;102164.81;4966630;28;20438;-94
2022/01/16 07:11:09;;;;;;;;;;;;;;;19.14;38.85;102172.75;4988003;28;19933;-94
2022/01/16 07:13:35;;;;;;;;;;;;;;;19.13;38.73;102178.50;4982174;28;19940;-93
2022/01/16 07:16:00;;;;;;;;;;;;;;;19.13;38.63;102182.06;4992223;28;19918;-92
2022/01/16 07:18:26;;;;;;;;;;;;;;;19.12;38.64;102187.78;4990814;28;20402;-91
2022/01/16 07:20:51;;;;;;;;;;;;;;;19.12;38.68;102199.56;4992438;28;19926;-94
2022/01/16 07:23:17;;;;;;;;;;;;;;;19.11;38.65;102211.63;4975888;28;19922;-93
2022/01/16 07:25:43;;;;;;;;;;;;;;;19.11;38.79;102211.63;4979445;28;20099;-92
2022/01/16 07:28:09;;;;;;;;;;;;;;;19.11;38.82;102213.53;4986171;28;19924;-92
2022/01/16 07:30:36;;;;;;;;;;;;;;;19.11;38.73;102211.63;4977144;28;19923;-92
2022/01/16 07:33:01;;;;;;;;;;;;;;;19.10;38.63;102209.13;4977739;28;19972;-93
2022/01/16 07:35:26;;;;;;;;;;;;;;;19.10;38.60;102211.88;4981720;28;19965;-90
2022/01/16 07:37:52;;;;;;;;;;;;;;;19.09;38.85;102227.47;4983474;28;19918;-93
2022/01/16 07:40:17;;;;;;;;;;;;;;;19.09;38.47;102227.47;4976658;28;19972;-93
2022/01/16 07:42:43;;;;;;;;;;;;;;;19.09;38.82;102222.00;4974523;28;19923;-93
2022/01/16 07:45:08;;;;;;;;;;;;;;;19.08;38.61;102220.38;4977894;28;20283;-93
2022/01/16 07:47:33;;;;;;;;;;;;;;;19.07;38.70;102218.69;4962510;28;19925;-95
2022/01/16 07:49:59;;;;;;;;;;;;;;;19.07;38.66;102229.66;4977589;28;20390;-95
2022/01/16 07:52:24;;;;;;;;;;;;;;;19.07;38.56;102228.84;4959831;28;19923;-95
2022/01/16 07:54:50;;;;;;;;;;;;;;;19.07;38.63;102237.88;4982448;28;20395;-92
2022/01/16 07:57:15;;;;;;;;;;;;;;;19.07;38.67;102248.00;4973706;28;20005;-91
2022/01/16 07:59:40;;;;;;;;;;;;;;;19.07;38.71;102253.47;4990451;28;19954;-93
2022/01/16 08:02:05;;;;;;;;;;;;;;;19.04;38.75;102243.88;4975132;28;20028;-93
2022/01/16 08:04:31;;;;;;;;;;;;;;;19.05;38.69;102248.28;4975520;28;19973;-93
2022/01/16 08:06:56;;;;;;;;;;;;;;;19.05;38.78;102247.44;4976479;28;19946;-93
2022/01/16 08:09:21;;;;;;;;;;;;;;;19.05;38.75;102250.19;4976507;28;19957;-91
2022/01/16 08:11:47;;;;;;;;;;;;;;;19.03;38.77;102239.50;4971627;28;19968;-92
2022/01/16 08:14:12;;;;;;;;;;;;;;;19.03;38.69;102231.28;4972407;28;19919;-92
2022/01/16 08:16:37;;;;;;;;;;;;;;;19.04;38.67;102238.41;4974392;28;19918;-92
2022/01/16 08:19:03;;;;;;;;;;;;;;;19.02;38.79;102233.22;4991100;28;19934;-93
2022/01/16 08:21:29;;;;;;;;;;;;;;;19.02;38.58;102230.47;4990697;28;19949;-87
2022/01/16 08:23:54;;;;;;;;;;;;;;;19.02;38.76;102224.16;4972144;28;19918;-92
2022/01/16 08:26:19;;;;;;;;;;;;;;;19.02;38.66;102221.41;4974578;28;19953;-93
2022/01/16 08:28:44;;;;;;;;;;;;;;;19.00;38.73;102229.91;4991215;28;19949;-92
2022/01/16 08:31:10;;;;;;;;;;;;;;;19.01;38.75;102228.81;4984752;28;19930;-95
2022/01/16 08:33:35;;;;;;;;;;;;;;;19.00;38.68;102226.34;4974924;28;19930;-92
2022/01/16 08:36:01;;;;;;;;;;;;;;;19.00;38.73;102229.09;4958982;28;19928;-95
2022/01/16 08:38:27;;;;;;;;;;;;;;;19.00;38.81;102229.09;4975388;28;19918;-90
2022/01/16 08:40:52;;;;;;;;;;;;;;;18.99;38.66;102228.22;4988612;28;20017;-92
2022/01/16 08:43:18;;;;;;;;;;;;;;;18.99;38.75;102233.72;4981947;28;19976;-95
2022/01/16 08:45:43;;;;;;;;;;;;;;;18.99;38.70;102241.09;4991316;28;19945;-90
2022/01/16 08:48:09;;;;;;;;;;;;;;;18.99;38.70;102227.41;4982143;28;19933;-89
2022/01/16 08:50:35;;;;;;;;;;;;;;;18.99;38.98;102238.38;4976104;28;19918;-89
2022/01/16 08:53:01;;;;;;;;;;;;;;;18.98;38.75;102245.78;4967439;28;20267;-91
2022/01/16 08:55:26;;;;;;;;;;;;;;;18.99;38.91;102252.06;4974713;28;19954;-91
2022/01/16 08:57:51;;;;;;;;;;;;;;;18.98;38.69;102256.72;4974809;28;20017;-91
2022/01/16 09:00:17;;;;;;;;;;;;;;;18.97;38.67;102263.25;4990195;28;19972;-91
2022/01/16 09:02:42;;;;;;;;;;;;;;;18.98;38.71;102272.34;4972917;28;19926;-90
2022/01/16 09:05:08;;;;;;;;;;;;;;;18.97;38.65;102276.97;4979051;28;20345;-90
2022/01/16 09:07:33;;;;;;;;;;;;;;;18.97;38.75;102271.47;4974604;28;19929;-86
2022/01/16 09:10:00;;;;;;;;;;;;;;;18.97;38.96;102274.22;4990132;28;19923;-91
2022/01/16 09:12:25;;;;;;;;;;;;;;;18.96;38.76;102269.84;4973776;28;19965;-89
2022/01/16 09:14:51;;;;;;;;;;;;;;;18.96;38.93;102269.84;5005185;28;19922;-89
2022/01/16 09:17:16;;;;;;;;;;;;;;;18.97;38.87;102267.94;4982004;28;19926;-91
2022/01/16 09:19:42;;;;;;;;;;;;;;;18.96;38.71;102278.06;4987705;28;20017;-92
2022/01/16 09:22:07;;;;;;;;;;;;;;;18.96;38.88;102279.97;4989862;28;19926;-92
2022/01/16 09:24:33;;;;;;;;;;;;;;;18.95;39.02;102279.16;4990569;28;20025;-91
2022/01/16 09:26:58;;;;;;;;;;;;;;;18.95;38.81;102292.84;4973442;28;19926;-91
2022/01/16 09:29:23;;;;;;;;;;;;;;;18.96;38.83;102291.75;4972473;28;19923;-89
2022/01/16 09:31:49;;;;;;;;;;;;;;;18.96;39.06;102296.41;4985662;28;20295;-91
2022/01/16 09:34:14;;;;;;;;;;;;;;;18.94;38.94;102299.41;4972619;28;19922;-91
2022/01/16 09:36:40;;;;;;;;;;;;;;;18.94;38.84;102293.09;4954323;28;19923;-92
2022/01/16 09:39:05;;;;;;;;;;;;;;;18.94;38.82;102302.13;4983124;28;19923;-92
2022/01/16 09:41:31;;;;;;;;;;;;;;;18.94;38.96;102304.06;4988050;28;19923;-91
2022/01/16 09:43:56;;;;;;;;;;;;;;;18.94;38.88;102299.41;4971934;28;19929;-90
2022/01/16 09:46:21;;;;;;;;;;;;;;;18.94;38.97;102304.06;4992575;28;19973;-91
2022/01/16 09:48:47;;;;;;;;;;;;;;;18.93;38.58;102305.97;4964717;28;19949;-91
2022/01/16 09:51:12;;;;;;;;;;;;;;;18.93;38.78;102308.72;4971591;28;19944;-92
2022/01/16 09:53:40;;;;;;;;;;;;;;;18.93;38.98;102314.19;4989574;28;20370;-91
2022/01/16 09:56:06;;;;;;;;;;;;;;;18.93;38.93;102310.63;4974509;28;20383;-90
2022/01/16 09:58:31;;;;;;;;;;;;;;;18.92;38.91;102318.00;4972598;28;19928;-91
2022/01/16 10:00:56;;;;;;;;;;;;;;;18.93;38.88;102332.53;5000384;28;19933;-91
2022/01/16 10:03:35;;;;;;;;;;;;;;;18.92;38.89;102322.66;4972244;28;19926;-91
2022/01/16 10:06:27;;;;;;;;;;;;;;;18.92;39.02;102333.59;4974055;28;19964;-90
2022/01/16 10:08:53;;;;;;;;;;;;;;;18.92;38.95;102341.81;4972118;28;20012;-91
2022/01/16 10:11:33;;;;;;;;;;;;;;;18.91;38.90;102338.25;4986400;28;19922;-91
2022/01/16 10:14:02;;;;;;;;;;;;;;;18.90;39.15;102339.34;4985421;28;19964;-89
2022/01/16 10:16:29;;;;;;;;;;;;;;;18.91;39.18;102341.00;4987299;28;20009;-89
2022/01/16 10:18:55;;;;;;;;;;;;;;;18.90;39.04;102339.34;4974279;28;19923;-90
2022/01/16 10:21:31;;;;;;;;;;;;;;;18.90;38.92;102347.56;4972707;28;19934;-93
2022/01/16 10:23:56;;;;;;;;;;;;;;;18.91;39.00;102351.13;4972964;28;19990;-92
2022/01/16 10:26:22;;;;;;;;;;;;;;;18.90;39.21;102339.34;5004857;28;20397;-90
2022/01/16 10:28:48;;;;;;;;;;;;;;;18.91;39.33;102345.66;4968062;28;19926;-89
2022/01/16 10:31:18;;;;;;;;;;;;;;;18.92;39.22;102339.06;4960056;28;20021;-90
2022/01/16 10:33:43;;;;;;;;;;;;;;;18.92;39.56;102339.06;4972971;28;19929;-91
2022/01/16 10:36:08;;;;;;;;;;;;;;;18.92;39.54;102341.81;4966425;28;20287;-92
2022/01/16 10:38:34;;;;;;;;;;;;;;;18.92;39.56;102345.38;5002210;28;19926;-89
2022/01/16 10:40:59;;;;;;;;;;;;;;;18.92;39.67;102342.63;4975400;28;19922;-92
2022/01/16 10:43:42;;;;;;;;;;;;;;;18.93;39.54;102348.97;4985384;28;19922;-88
2022/01/16 10:46:09;;;;;;;;;;;;;;;18.93;39.49;102349.78;4976247;28;19922;-89
2022/01/16 10:48:34;;;;;;;;;;;;;;;18.94;39.72;102356.06;4975749;28;19918;-88
2022/01/16 10:51:02;;;;;;;;;;;;;;;18.94;39.74;102353.34;4976347;28;19923;-91
2022/01/16 10:53:29;;;;;;;;;;;;;;;18.94;39.83;102356.91;4989916;28;20279;-90
2022/01/16 10:55:55;;;;;;;;;;;;;;;18.94;39.82;102347.88;4975936;28;19924;-87
2022/01/16 10:58:37;;;;;;;;;;;;;;;18.94;39.98;102356.91;4976346;28;19922;-91
2022/01/16 11:01:07;;;;;;;;;;;;;;;18.95;40.04;102363.19;4987173;28;20013;-86
2022/01/16 11:03:45;;;;;;;;;;;;;;;18.96;40.07;102359.38;4975519;28;19922;-86
2022/01/16 11:06:11;;;;;;;;;;;;;;;18.95;40.26;102358.56;4971826;28;20379;-86
2022/01/16 11:08:36;;;;;;;;;;;;;;;18.95;40.09;102357.72;4974638;28;19953;-91
2022/01/16 11:11:01;;;;;;;;;;;;;;;18.96;39.96;102364.88;4996634;28;19929;-88
2022/01/16 11:13:32;;;;;;;;;;;;;;;18.95;40.12;102369.53;4990282;28;19929;-87
2022/01/16 11:15:59;;;;;;;;;;;;;;;18.94;40.32;102358.81;4982303;28;19949;-88
2022/01/16 11:18:25;;;;;;;;;;;;;;;18.93;40.26;102355.25;4974322;28;20389;-85
2022/01/16 11:25:50;;;;;;;;;;;;;;;18.93;40.42;102362.66;4975629;28;19918;-93
2022/01/16 11:28:17;;;;;;;;;;;;;;;18.91;40.22;102371.13;4977271;28;20370;-94
2022/01/16 11:30:44;;;;;;;;;;;;;;;18.92;40.42;102364.53;4977111;28;19929;-91
2022/01/16 11:33:10;;;;;;;;;;;;;;;18.94;40.47;102367.03;4976554;28;19932;-95
2022/01/16 11:35:40;;;;;;;;;;;;;;;18.94;40.36;102370.59;4987776;28;20286;-93
2022/01/16 11:38:06;;;;;;;;;;;;;;;18.96;40.58;102373.91;4978427;28;20105;-96
2022/01/16 11:40:41;;;;;;;;;;;;;;;18.97;40.54;102375.53;4988049;28;20017;-89
2022/01/16 11:43:30;;;;;;;;;;;;;;;18.99;40.64;102373.38;4975370;28;20249;-88
2022/01/16 11:46:25;;;;;;;;;;;;;;;19.01;40.37;102373.94;4974183;28;19918;-87
2022/01/16 11:48:59;;;;;;;;;;;;;;;19.03;40.37;102368.22;4967842;28;20406;-87
2022/01/16 11:54:02;;;;;;;;;;;;;;;19.07;40.45;102368.50;4962596;28;19937;-86
2022/01/16 11:56:42;;;;;;;;;;;;;;;19.09;40.50;102369.91;4994833;28;19957;-84
2022/01/16 11:59:11;;;;;;;;;;;;;;;19.11;40.52;102366.91;4985691;28;20298;-89
2022/01/16 12:01:48;;;;;;;;;;;;;;;19.13;40.38;102362.00;4971718;28;19926;-86
2022/01/16 12:04:30;;;;;;;;;;;;;;;19.14;40.38;102356.25;5002414;28;21554;-85
2022/01/16 12:06:55;;;;;;;;;;;;;;;19.17;40.50;102358.47;4986838;28;19926;-88
2022/01/16 12:12:13;;;;;;;;;;;;;;;19.21;40.54;102356.03;4972248;28;20405;-85
2022/01/16 12:14:57;;;;;;;;;;;;;;;19.22;40.46;102352.22;4970332;28;20367;-86
2022/01/16 12:20:15;;;;;;;;;;;;;;;19.27;40.51;102348.69;4970951;28;19953;-87
2022/01/16 12:22:43;;;;;;;;;;;;;;;19.28;40.67;102347.59;4970530;28;19922;-86
2022/01/16 12:25:19;;;;;;;;;;;;;;;19.29;40.35;102344.59;4970584;28;20000;-87
2022/01/16 12:27:45;;;;;;;;;;;;;;;19.31;40.48;102345.16;4988952;28;19965;-86
2022/01/16 12:30:33;;;;;;;;;;;;;;;19.32;40.41;102352.28;5002568;28;19930;-87
2022/01/16 12:33:00;;;;;;;;;;;;;;;19.35;40.42;102359.16;4937018;28;20378;-85
2022/01/16 12:35:41;;;;;;;;;;;;;;;19.37;40.36;102359.72;4975386;28;20283;-87
2022/01/16 12:38:14;;;;;;;;;;;;;;;19.38;40.45;102356.72;4990622;28;19926;-86
2022/01/16 12:40:42;;;;;;;;;;;;;;;19.39;40.43;102354.81;4977593;28;20361;-87
2022/01/16 12:43:10;;;;;;;;;;;;;;;19.40;40.25;102359.19;4969470;28;20010;-87
2022/01/16 12:45:39;;;;;;;;;;;;;;;19.41;40.40;102353.47;4966846;28;19926;-87
2022/01/16 12:48:05;;;;;;;;;;;;;;;19.43;40.47;102359.50;4966844;28;19933;-90
2022/01/16 12:50:31;;;;;;;;;;;;;;;19.45;40.47;102353.75;4969212;28;20338;-90
2022/01/16 12:52:56;;;;;;;;;;;;;;;19.46;40.32;102358.97;4990120;28;19926;-83
2022/01/16 12:55:25;;;;;;;;;;;;;;;19.48;40.52;102350.50;4982411;28;19921;-96
2022/01/16 13:00:56;;;;;;;;;;;;;;;19.51;40.21;102357.38;5442107;23;19930;-93
2022/01/16 13:03:25;;;;;;;;;;;;;;;19.52;40.25;102354.34;4948933;29;19907;-93
2022/01/16 13:05:50;;;;;;;;;;;;;;;19.54;40.21;102359.56;4934950;29;20009;-88
2022/01/16 13:08:16;;;;;;;;;;;;;;;19.54;40.33;102352.19;4933074;29;19973;-95
2022/01/16 13:10:41;;;;;;;;;;;;;;;19.55;40.21;102351.06;4969543;28;19926;-90
2022/01/16 13:13:10;;;;;;;;;;;;;;;19.56;40.50;102340.97;4946683;28;19938;-89
2022/01/16 13:15:36;;;;;;;;;;;;;;;19.57;40.12;102343.41;4934852;29;20054;-90
2022/01/16 13:18:08;;;;;;;;;;;;;;;19.57;40.30;102337.94;4949054;28;20021;-91
2022/01/16 13:20:33;;;;;;;;;;;;;;;19.60;40.06;102348.38;4932621;28;19919;-90
2022/01/16 13:22:58;;;;;;;;;;;;;;;19.61;39.95;102338.25;4935300;29;19923;-90
2022/01/16 13:25:23;;;;;;;;;;;;;;;19.62;40.13;102345.38;4949028;28;20029;-90
2022/01/16 13:27:49;;;;;;;;;;;;;;;19.62;40.08;102335.22;4947102;28;20409;-90
2022/01/16 13:30:24;;;;;;;;;;;;;;;19.64;40.29;102332.22;4923517;29;20268;-88
2022/01/16 13:32:49;;;;;;;;;;;;;;;19.65;40.17;102344.84;4929224;29;20373;-88